createdAt,value
2023-01-15T00:02:24.929Z,0.10
2023-01-15T00:05:10.718Z,0.10
2023-01-15T00:07:56.042Z,0.10
2023-01-15T00:10:41.425Z,0.25
2023-01-15T00:13:28.854Z,0.20
2023-01-15T00:16:17.791Z,0.10
2023-01-15T00:19:04.610Z,0.10
2023-01-15T00:21:50.355Z,0.30
2023-01-15T00:24:54.031Z,0.15
2023-01-15T00:27:39.675Z,0.23
2023-01-15T00:30:25.119Z,0.10
2023-01-15T00:33:10.396Z,0.10
2023-01-15T00:35:57.144Z,0.10
2023-01-15T00:38:42.846Z,0.10
2023-01-15T00:41:28.513Z,0.20
2023-01-15T00:44:14.279Z,0.10
2023-01-15T00:46:59.763Z,0.10
2023-01-15T00:49:45.307Z,0.40
2023-01-15T00:52:31.267Z,0.20
2023-01-15T00:55:19.375Z,0.10
2023-01-15T00:58:04.980Z,0.13
2023-01-15T01:00:55.515Z,0.13
2023-01-15T01:03:41.124Z,0.20
2023-01-15T01:06:27.130Z,0.38
2023-01-15T01:09:16.105Z,0.20
2023-01-15T01:12:01.933Z,0.40
2023-01-15T01:14:47.413Z,0.20
2023-01-15T01:17:33.750Z,0.13
2023-01-15T01:20:19.496Z,0.10
2023-01-15T01:23:04.901Z,0.13
2023-01-15T01:25:50.664Z,0.28
2023-01-15T01:28:36.207Z,0.28
2023-01-15T01:31:22.395Z,0.10
2023-01-15T01:34:09.976Z,0.40
2023-01-15T01:36:55.356Z,0.15
2023-01-15T01:39:41.087Z,0.32
2023-01-15T01:42:26.478Z,0.20
2023-01-15T01:45:33.054Z,0.20
2023-01-15T01:48:23.889Z,0.20
2023-01-15T01:51:09.335Z,0.40
2023-01-15T01:53:56.611Z,0.20
2023-01-15T01:56:42.066Z,0.50
2023-01-15T01:59:27.656Z,0.20
2023-01-15T02:02:14.241Z,0.43
2023-01-15T02:04:59.898Z,0.40
2023-01-15T02:07:45.479Z,0.30
2023-01-15T02:10:30.985Z,0.23
2023-01-15T02:13:39.053Z,0.10
2023-01-15T02:16:35.394Z,0.43
2023-01-15T02:19:45.371Z,0.57
2023-01-15T02:22:59.307Z,0.25
2023-01-15T02:26:11.713Z,0.20
2023-01-15T02:28:59.307Z,0.60
2023-01-15T02:31:51.012Z,0.20
2023-01-15T02:34:39.326Z,0.30
2023-01-15T02:37:30.528Z,0.20
2023-01-15T02:40:22.480Z,0.40
2023-01-15T02:43:08.884Z,0.20
2023-01-15T02:45:57.254Z,0.30
2023-01-15T02:48:46.222Z,0.60
2023-01-15T02:51:39.923Z,0.20
2023-01-15T02:54:30.535Z,0.20
2023-01-15T02:57:18.516Z,0.43
2023-01-15T03:00:07.823Z,0.70
2023-01-15T03:03:06.307Z,0.28
2023-01-15T03:05:56.088Z,0.50
2023-01-15T03:08:41.551Z,0.63
2023-01-15T03:11:27.172Z,0.75
2023-01-15T03:14:15.087Z,0.77
2023-01-15T03:17:12.037Z,0.57
2023-01-15T03:20:05.828Z,0.50
2023-01-15T03:22:56.953Z,0.30
2023-01-15T03:25:49.415Z,0.47
2023-01-15T03:28:38.124Z,0.35
2023-01-15T03:31:23.680Z,0.55
2023-01-15T03:34:09.465Z,0.22
2023-01-15T03:36:54.718Z,0.20
2023-01-15T03:39:41.390Z,0.43
2023-01-15T03:42:45.017Z,0.60
2023-01-15T03:45:37.938Z,0.52
2023-01-15T03:48:42.819Z,0.60
2023-01-15T03:51:42.677Z,0.32
2023-01-15T03:54:43.350Z,0.35
2023-01-15T03:57:37.826Z,0.30
2023-01-15T04:00:32.220Z,0.30
2023-01-15T04:03:20.253Z,0.30
2023-01-15T04:06:06.670Z,0.22
2023-01-15T04:08:52.510Z,0.75
2023-01-15T04:11:38.067Z,1.15
2023-01-15T04:14:23.460Z,0.47
2023-01-15T04:17:09.000Z,0.70
2023-01-15T04:19:54.357Z,0.40
2023-01-15T04:22:39.572Z,0.37
2023-01-15T04:25:25.317Z,0.40
2023-01-15T04:28:10.748Z,0.32
2023-01-15T04:30:57.574Z,0.82
2023-01-15T04:33:43.101Z,0.20
2023-01-15T04:36:29.158Z,0.45
2023-01-15T04:39:14.758Z,0.22
2023-01-15T04:42:18.760Z,0.40
2023-01-15T04:45:04.523Z,0.47
2023-01-15T04:47:49.873Z,0.30
2023-01-15T04:50:35.343Z,0.40
2023-01-15T04:53:20.913Z,0.20
2023-01-15T04:56:06.867Z,0.40
2023-01-15T04:58:52.317Z,1.02
2023-01-15T05:01:38.179Z,0.45
2023-01-15T05:04:24.072Z,0.10
2023-01-15T05:07:10.009Z,0.10
2023-01-15T05:09:55.598Z,0.10
2023-01-15T05:12:40.862Z,0.30
2023-01-15T05:15:26.442Z,0.30
2023-01-15T05:18:15.012Z,0.50
2023-01-15T05:21:00.348Z,0.60
2023-01-15T05:23:46.540Z,0.50
2023-01-15T05:26:33.295Z,0.40
2023-01-15T05:29:18.717Z,0.40
2023-01-15T05:32:04.409Z,0.47
2023-01-15T05:34:49.755Z,0.50
2023-01-15T05:37:35.281Z,0.40
2023-01-15T05:40:21.056Z,0.43
2023-01-15T05:43:06.567Z,0.32
2023-01-15T05:45:52.143Z,0.10
2023-01-15T05:48:37.370Z,0.30
2023-01-15T05:51:22.923Z,0.20
2023-01-15T05:54:11.377Z,0.40
2023-01-15T05:56:57.149Z,0.30
2023-01-15T05:59:42.441Z,0.53
2023-01-15T06:02:27.813Z,0.20
2023-01-15T06:05:14.224Z,0.60
2023-01-15T06:08:01.198Z,0.82
2023-01-15T06:10:48.420Z,0.40
2023-01-15T06:13:34.513Z,0.35
2023-01-15T06:16:20.862Z,0.57
2023-01-15T06:19:07.236Z,0.77
2023-01-15T06:21:52.658Z,0.45
2023-01-15T06:24:38.272Z,0.60
2023-01-15T06:27:23.645Z,0.60
2023-01-15T06:30:09.638Z,0.60
2023-01-15T06:32:55.034Z,0.30
2023-01-15T06:35:40.625Z,0.60
2023-01-15T06:38:26.361Z,0.77
2023-01-15T06:41:36.010Z,0.63
2023-01-15T06:44:39.958Z,1.00
2023-01-15T06:47:25.518Z,0.60
2023-01-15T06:50:11.126Z,0.60
2023-01-15T06:52:56.378Z,0.70
2023-01-15T06:55:41.678Z,0.95
2023-01-15T06:58:27.285Z,1.10
2023-01-15T07:01:15.241Z,0.70
2023-01-15T07:04:00.676Z,0.50
2023-01-15T07:06:46.105Z,1.08
2023-01-15T07:09:31.664Z,0.70
2023-01-15T07:12:19.406Z,0.80
2023-01-15T07:15:05.192Z,0.60
2023-01-15T07:17:54.717Z,0.70
2023-01-15T07:20:40.155Z,0.90
2023-01-15T07:23:27.208Z,1.20
2023-01-15T07:26:12.888Z,0.90
2023-01-15T07:28:58.218Z,0.77
2023-01-15T07:31:43.493Z,1.10
2023-01-15T07:34:29.091Z,0.88
2023-01-15T07:37:14.774Z,1.20
2023-01-15T07:40:00.258Z,0.50
2023-01-15T07:43:03.701Z,0.80
2023-01-15T07:46:08.145Z,1.05
2023-01-15T07:49:12.174Z,1.17
2023-01-15T07:51:58.078Z,0.90
2023-01-15T07:54:45.081Z,0.90
2023-01-15T07:57:30.846Z,0.40
2023-01-15T08:00:21.386Z,0.60
2023-01-15T08:03:07.091Z,0.70
2023-01-15T08:05:52.677Z,0.90
2023-01-15T08:08:38.205Z,0.77
2023-01-15T08:11:42.169Z,0.55
2023-01-15T08:14:46.214Z,0.90
2023-01-15T08:17:35.741Z,0.77
2023-01-15T08:20:24.497Z,1.20
2023-01-15T08:23:10.638Z,0.70
2023-01-15T08:25:59.953Z,0.70
2023-01-15T08:28:45.256Z,0.60
2023-01-15T08:31:30.937Z,0.87
2023-01-15T08:34:16.838Z,0.60
2023-01-15T08:37:02.263Z,0.50
2023-01-15T08:39:47.504Z,0.87
2023-01-15T08:42:33.104Z,0.77
2023-01-15T08:45:18.578Z,1.20
2023-01-15T08:48:04.395Z,0.77
2023-01-15T08:50:50.541Z,1.13
2023-01-15T08:53:36.907Z,0.52
2023-01-15T08:56:22.327Z,0.98
2023-01-15T08:59:08.185Z,0.73
2023-01-15T09:01:54.289Z,1.10
2023-01-15T09:04:39.817Z,1.00
2023-01-15T09:07:25.330Z,0.75
2023-01-15T09:10:10.842Z,1.27
2023-01-15T09:13:00.311Z,1.38
2023-01-15T09:15:45.615Z,1.08
2023-01-15T09:18:31.326Z,1.33
2023-01-15T09:21:16.603Z,0.73
2023-01-15T09:24:02.800Z,0.63
2023-01-15T09:26:48.745Z,0.70
2023-01-15T09:29:36.074Z,0.97
2023-01-15T09:32:21.967Z,0.73
2023-01-15T09:35:07.856Z,0.57
2023-01-15T09:37:53.446Z,0.73
2023-01-15T09:40:50.704Z,0.82
2023-01-15T09:44:11.393Z,0.75
2023-01-15T09:47:11.868Z,0.90
2023-01-15T09:50:18.120Z,0.90
2023-01-15T09:53:27.950Z,0.90
2023-01-15T09:56:25.957Z,0.90
2023-01-15T09:59:25.701Z,0.60
2023-01-15T10:02:37.633Z,0.30
2023-01-15T10:05:32.977Z,0.40
2023-01-15T10:08:25.973Z,0.73
2023-01-15T10:11:21.973Z,0.60
2023-01-15T10:14:13.635Z,0.57
2023-01-15T10:16:59.100Z,0.40
2023-01-15T10:19:45.170Z,0.40
2023-01-15T10:22:42.894Z,0.60
2023-01-15T10:25:39.944Z,0.40
2023-01-15T10:28:29.629Z,0.30
2023-01-15T10:31:21.133Z,0.68
2023-01-15T10:34:24.757Z,0.40
2023-01-15T10:37:17.035Z,0.50
2023-01-15T10:40:30.542Z,0.85
2023-01-15T10:43:50.885Z,0.90
2023-01-15T10:46:40.355Z,0.75
2023-01-15T10:49:29.910Z,1.00
2023-01-15T10:52:31.673Z,0.87
2023-01-15T10:55:32.841Z,0.77
2023-01-15T10:58:41.240Z,0.77
2023-01-15T11:01:27.762Z,0.77
2023-01-15T11:04:13.831Z,0.77
2023-01-15T11:07:01.033Z,0.75
2023-01-15T11:09:47.337Z,0.32
2023-01-15T11:12:51.337Z,0.40
2023-01-15T11:15:56.214Z,0.75
2023-01-15T11:19:03.506Z,0.40
2023-01-15T11:21:51.117Z,0.50
2023-01-15T11:24:38.407Z,0.70
2023-01-15T11:27:30.253Z,0.77
2023-01-15T11:30:33.768Z,0.80
2023-01-15T11:33:28.054Z,1.10
2023-01-15T11:36:23.585Z,0.57
2023-01-15T11:39:27.672Z,0.68
2023-01-15T11:42:35.272Z,0.88
2023-01-15T11:45:41.856Z,0.50
2023-01-15T11:48:45.986Z,0.70
2023-01-15T11:51:41.272Z,0.55
2023-01-15T11:54:27.282Z,0.75
2023-01-15T11:57:27.774Z,1.00
2023-01-15T12:00:28.764Z,0.40
2023-01-15T12:03:22.489Z,0.40
2023-01-15T12:06:13.178Z,0.20
2023-01-15T12:09:31.385Z,0.30
2023-01-15T12:12:35.849Z,0.40
2023-01-15T12:15:39.308Z,0.47
2023-01-15T12:18:43.575Z,0.57
2023-01-15T12:21:51.999Z,0.57
2023-01-15T12:25:20.194Z,0.40
2023-01-15T12:28:24.376Z,0.60
2023-01-15T12:31:22.185Z,0.57
2023-01-15T12:34:19.153Z,0.50
2023-01-15T12:37:06.795Z,0.50
2023-01-15T12:39:55.391Z,0.40
2023-01-15T12:43:06.775Z,0.43
2023-01-15T12:45:57.201Z,0.60
2023-01-15T12:48:54.535Z,0.50
2023-01-15T12:51:45.540Z,0.30
2023-01-15T12:54:38.765Z,0.70
2023-01-15T12:57:43.687Z,0.60
2023-01-15T13:00:36.941Z,0.63
2023-01-15T13:03:32.054Z,0.80
2023-01-15T13:06:19.417Z,0.98
2023-01-15T13:09:19.683Z,0.73
2023-01-15T13:12:13.302Z,0.43
2023-01-15T13:14:59.046Z,0.38
2023-01-15T13:18:14.564Z,0.52
2023-01-15T13:21:07.003Z,0.80
2023-01-15T13:24:13.001Z,0.40
2023-01-15T13:27:20.953Z,0.40
2023-01-15T13:30:18.040Z,0.57
2023-01-15T13:33:29.778Z,0.52
2023-01-15T13:36:25.142Z,0.70
2023-01-15T13:39:22.835Z,0.40
2023-01-15T13:42:34.152Z,0.43
2023-01-15T13:45:19.438Z,0.52
2023-01-15T13:48:15.907Z,1.00
2023-01-15T13:51:04.627Z,0.65
2023-01-15T13:53:50.482Z,0.60
2023-01-15T13:56:37.113Z,0.60
2023-01-15T13:59:41.126Z,0.60
2023-01-15T14:02:30.314Z,0.68
2023-01-15T14:05:32.565Z,0.60
2023-01-15T14:08:36.084Z,0.30
2023-01-15T14:11:47.887Z,0.60
2023-01-15T14:14:59.423Z,0.70
2023-01-15T14:18:08.699Z,0.95
2023-01-15T14:20:54.318Z,0.50
2023-01-15T14:23:53.232Z,0.90
2023-01-15T14:26:58.799Z,0.80
2023-01-15T14:30:06.842Z,0.80
2023-01-15T14:33:07.209Z,0.70
2023-01-15T14:35:52.924Z,0.52
2023-01-15T14:38:51.988Z,0.43
2023-01-15T14:41:56.102Z,0.43
2023-01-15T14:44:44.713Z,1.08
2023-01-15T14:47:36.995Z,1.20
2023-01-15T14:50:33.844Z,0.80
2023-01-15T14:53:30.758Z,1.15
2023-01-15T14:56:28.359Z,0.52
2023-01-15T14:59:28.127Z,0.57
2023-01-15T15:02:21.245Z,0.60
2023-01-15T15:05:15.851Z,0.60
2023-01-15T15:08:02.977Z,0.95
2023-01-15T15:10:54.721Z,0.80
2023-01-15T15:13:46.536Z,1.67
2023-01-15T15:16:47.855Z,0.98
2023-01-15T15:19:39.838Z,0.70
2023-01-15T15:22:31.948Z,0.57
2023-01-15T15:25:23.342Z,0.75
2023-01-15T15:28:11.042Z,0.60
2023-01-15T15:31:01.286Z,0.43
2023-01-15T15:33:46.684Z,0.55
2023-01-15T15:36:36.509Z,0.80
2023-01-15T15:39:35.568Z,0.82
2023-01-15T15:43:00.491Z,0.60
2023-01-15T15:46:15.750Z,0.60
2023-01-15T15:49:01.353Z,0.60
2023-01-15T15:51:51.786Z,1.00
2023-01-15T15:54:37.406Z,0.75
2023-01-15T15:57:23.078Z,0.55
2023-01-15T16:00:19.615Z,0.60
2023-01-15T16:03:20.458Z,0.30
2023-01-15T16:06:07.499Z,0.95
2023-01-15T16:09:01.455Z,0.90
2023-01-15T16:11:48.448Z,0.60
2023-01-15T16:14:36.038Z,0.65
2023-01-15T16:17:22.138Z,0.80
2023-01-15T16:20:17.524Z,0.80
2023-01-15T16:23:05.005Z,0.93
2023-01-15T16:26:01.940Z,0.50
2023-01-15T16:28:56.778Z,0.32
2023-01-15T16:31:42.586Z,0.63
2023-01-15T16:34:31.017Z,0.47
2023-01-15T16:37:30.522Z,0.65
2023-01-15T16:40:23.370Z,0.70
2023-01-15T16:43:31.115Z,0.80
2023-01-15T16:46:19.399Z,0.50
2023-01-15T16:49:32.140Z,0.90
2023-01-15T16:52:36.225Z,0.68
2023-01-15T16:55:33.704Z,0.40
2023-01-15T16:58:21.462Z,0.40
2023-01-15T17:01:42.276Z,0.55
2023-01-15T17:04:36.574Z,0.50
2023-01-15T17:07:38.807Z,0.43
2023-01-15T17:10:28.235Z,0.68
2023-01-15T17:13:19.699Z,0.38
2023-01-15T17:16:16.028Z,0.50
2023-01-15T17:19:05.695Z,0.50
2023-01-15T17:21:51.529Z,0.32
2023-01-15T17:24:37.308Z,0.57
2023-01-15T17:27:24.095Z,0.43
2023-01-15T17:30:12.539Z,0.88
2023-01-15T17:32:59.186Z,0.70
2023-01-15T17:35:48.353Z,0.83
2023-01-15T17:38:33.763Z,0.40
2023-01-15T17:41:20.628Z,0.30
2023-01-15T17:44:06.765Z,1.00
2023-01-15T17:46:52.402Z,0.65
2023-01-15T17:49:37.857Z,0.60
2023-01-15T17:52:23.259Z,0.60
2023-01-15T17:55:30.668Z,0.93
2023-01-15T17:58:35.744Z,0.60
2023-01-15T18:01:42.912Z,0.60
2023-01-15T18:05:07.234Z,0.90
2023-01-15T18:07:56.546Z,0.50
2023-01-15T18:10:41.682Z,0.50
2023-01-15T18:13:27.260Z,0.43
2023-01-15T18:16:12.794Z,0.52
2023-01-15T18:18:58.456Z,0.60
2023-01-15T18:21:43.699Z,0.47
2023-01-15T18:24:29.321Z,0.50
2023-01-15T18:27:14.938Z,0.50
2023-01-15T18:30:00.624Z,0.80
2023-01-15T18:32:46.590Z,0.60
2023-01-15T18:35:32.323Z,0.40
2023-01-15T18:38:17.722Z,0.80
2023-01-15T18:41:33.839Z,0.90
2023-01-15T18:44:40.757Z,0.40
2023-01-15T18:47:26.514Z,0.73
2023-01-15T18:50:11.797Z,0.40
2023-01-15T18:52:57.843Z,0.40
2023-01-15T18:55:43.823Z,0.80
2023-01-15T18:58:29.503Z,0.55
2023-01-15T19:01:15.794Z,0.50
2023-01-15T19:04:01.184Z,0.60
2023-01-15T19:06:47.508Z,0.50
2023-01-15T19:09:33.069Z,0.50
2023-01-15T19:12:19.672Z,0.60
2023-01-15T19:15:25.674Z,0.60
2023-01-15T19:18:29.957Z,0.50
2023-01-15T19:21:17.737Z,0.60
2023-01-15T19:24:03.224Z,0.40
2023-01-15T19:26:48.597Z,0.40
2023-01-15T19:29:34.092Z,0.43
2023-01-15T19:32:19.411Z,0.60
2023-01-15T19:35:05.260Z,0.30
2023-01-15T19:37:50.854Z,0.30
2023-01-15T19:40:40.272Z,0.13
2023-01-15T19:43:44.250Z,0.20
2023-01-15T19:46:48.671Z,0.10
2023-01-15T19:49:56.044Z,0.50
2023-01-15T19:52:41.709Z,0.10
2023-01-15T19:55:29.504Z,0.40
2023-01-15T19:58:15.701Z,0.43
2023-01-15T20:01:01.646Z,0.40
2023-01-15T20:03:47.107Z,0.32
2023-01-15T20:06:32.502Z,0.20
2023-01-15T20:09:18.202Z,0.10
2023-01-15T20:12:22.436Z,0.20
2023-01-15T20:15:09.293Z,0.20
2023-01-15T20:17:55.652Z,0.13
2023-01-15T20:20:41.021Z,0.22
2023-01-15T20:23:26.571Z,0.20
2023-01-15T20:26:14.638Z,0.10
2023-01-15T20:28:59.792Z,0.30
2023-01-15T20:31:45.087Z,0.25
2023-01-15T20:34:32.045Z,0.30
2023-01-15T20:37:17.760Z,0.40
2023-01-15T20:40:03.398Z,0.20
2023-01-15T20:43:07.401Z,0.30
2023-01-15T20:45:52.886Z,0.30
2023-01-15T20:48:56.660Z,0.20
2023-01-15T20:51:42.183Z,0.50
2023-01-15T20:54:27.768Z,0.50
2023-01-15T20:57:13.377Z,0.70
2023-01-15T20:59:58.862Z,0.50
2023-01-15T21:02:44.494Z,0.50
2023-01-15T21:05:31.049Z,0.70
2023-01-15T21:08:16.498Z,0.50
2023-01-15T21:11:02.073Z,0.60
2023-01-15T21:13:47.380Z,0.43
2023-01-15T21:16:32.784Z,0.98
2023-01-15T21:19:18.210Z,0.70
2023-01-15T21:22:03.575Z,0.70
2023-01-15T21:24:51.392Z,0.80
2023-01-15T21:27:37.681Z,0.80
2023-01-15T21:30:25.591Z,0.70
2023-01-15T21:33:11.631Z,0.60
2023-01-15T21:35:57.172Z,0.70
2023-01-15T21:38:42.826Z,0.70
2023-01-15T21:41:46.815Z,0.90
2023-01-15T21:44:35.415Z,0.93
2023-01-15T21:47:20.855Z,0.90
2023-01-15T21:50:06.636Z,0.75
2023-01-15T21:52:52.091Z,0.60
2023-01-15T21:55:37.808Z,0.60
2023-01-15T21:58:23.204Z,0.57
2023-01-15T22:01:10.795Z,1.00
2023-01-15T22:03:56.476Z,1.08
2023-01-15T22:06:41.864Z,0.70
2023-01-15T22:09:27.409Z,0.90
2023-01-15T22:12:13.384Z,0.67
2023-01-15T22:14:58.741Z,1.08
2023-01-15T22:17:44.186Z,1.20
2023-01-15T22:20:29.779Z,0.90
2023-01-15T22:23:15.094Z,0.80
2023-01-15T22:26:01.021Z,1.05
2023-01-15T22:28:47.573Z,0.77
2023-01-15T22:31:32.820Z,1.20
2023-01-15T22:34:21.321Z,0.82
2023-01-15T22:37:07.109Z,0.70
2023-01-15T22:39:52.499Z,0.70
2023-01-15T22:42:37.948Z,1.00
2023-01-15T22:45:24.550Z,1.10
2023-01-15T22:48:11.089Z,0.60
2023-01-15T22:50:57.423Z,0.77
2023-01-15T22:53:42.967Z,0.85
2023-01-15T22:56:29.121Z,1.17
2023-01-15T22:59:15.931Z,1.03
2023-01-15T23:02:01.770Z,0.90
2023-01-15T23:04:48.092Z,0.60
2023-01-15T23:07:35.561Z,0.73
2023-01-15T23:10:21.083Z,0.88
2023-01-15T23:13:06.426Z,0.75
2023-01-15T23:15:59.605Z,0.97
2023-01-15T23:18:46.013Z,0.82
2023-01-15T23:21:31.775Z,0.63
2023-01-15T23:24:17.816Z,0.70
2023-01-15T23:27:03.265Z,0.90
2023-01-15T23:29:48.534Z,0.50
2023-01-15T23:32:34.167Z,0.50
2023-01-15T23:35:20.017Z,0.75
2023-01-15T23:38:05.682Z,1.00
2023-01-15T23:40:51.566Z,1.13
2023-01-15T23:43:56.287Z,0.90
2023-01-15T23:46:41.947Z,0.90
2023-01-15T23:49:27.228Z,0.50
2023-01-15T23:52:12.640Z,0.95
2023-01-15T23:54:58.159Z,0.60
2023-01-15T23:57:43.388Z,0.57
